createdAt,value
2019-03-13T00:00:29.442Z,6.27
2019-03-13T00:02:55.495Z,6.25
2019-03-13T00:05:21.778Z,6.26
2019-03-13T00:07:47.781Z,6.25
2019-03-13T00:10:14.056Z,6.21
2019-03-13T00:12:40.001Z,6.14
2019-03-13T00:15:09.110Z,6.17
2019-03-13T00:17:35.058Z,6.08
2019-03-13T00:20:00.961Z,6.06
2019-03-13T00:22:27.093Z,6.08
2019-03-13T00:24:56.184Z,6.01
2019-03-13T00:27:21.836Z,6.03
2019-03-13T00:29:47.922Z,5.96
2019-03-13T00:32:13.896Z,5.93
2019-03-13T00:34:39.850Z,5.89
2019-03-13T00:37:06.010Z,5.91
2019-03-13T00:39:31.962Z,5.88
2019-03-13T00:41:57.892Z,5.92
2019-03-13T00:44:23.868Z,5.79
2019-03-13T00:46:49.725Z,5.75
2019-03-13T00:49:15.580Z,5.75
2019-03-13T00:51:41.472Z,5.80
2019-03-13T00:54:07.314Z,5.83
2019-03-13T00:56:33.159Z,5.74
2019-03-13T00:58:59.025Z,5.74
2019-03-13T01:01:26.788Z,5.74
2019-03-13T01:03:57.618Z,5.75
2019-03-13T01:06:31.657Z,5.75
2019-03-13T01:08:57.573Z,5.71
2019-03-13T01:11:23.543Z,5.64
2019-03-13T01:13:49.607Z,5.63
2019-03-13T01:16:15.639Z,5.53
2019-03-13T01:18:42.825Z,5.50
2019-03-13T01:21:08.772Z,5.42
2019-03-13T01:23:34.894Z,5.36
2019-03-13T01:26:00.714Z,5.39
2019-03-13T01:28:26.765Z,5.27
2019-03-13T01:31:09.889Z,5.32
2019-03-13T01:33:35.949Z,5.25
2019-03-13T01:36:03.901Z,5.23
2019-03-13T01:38:30.246Z,5.20
2019-03-13T01:40:56.115Z,5.14
2019-03-13T01:43:21.956Z,5.22
2019-03-13T01:45:48.068Z,5.12
2019-03-13T01:48:13.946Z,5.08
2019-03-13T01:50:39.843Z,4.96
2019-03-13T01:53:05.789Z,4.91
2019-03-13T01:55:31.903Z,4.99
2019-03-13T01:57:57.750Z,4.90
2019-03-13T02:00:23.805Z,4.92
2019-03-13T02:02:49.752Z,4.85
2019-03-13T02:05:15.932Z,4.81
2019-03-13T02:07:41.782Z,4.91
2019-03-13T02:10:09.835Z,4.80
2019-03-13T02:12:35.799Z,4.84
2019-03-13T02:15:02.225Z,4.77
2019-03-13T02:17:28.191Z,4.80
2019-03-13T02:19:54.112Z,4.95
2019-03-13T02:22:19.975Z,4.84
2019-03-13T02:24:45.893Z,4.89
2019-03-13T02:27:11.731Z,4.78
2019-03-13T02:29:37.582Z,4.83
2019-03-13T02:32:03.658Z,4.77
2019-03-13T02:34:29.609Z,4.69
2019-03-13T02:36:55.679Z,4.69
2019-03-13T02:39:21.634Z,4.73
2019-03-13T02:41:47.582Z,4.73
2019-03-13T02:44:13.638Z,4.55
2019-03-13T02:46:39.515Z,4.55
2019-03-13T02:49:05.337Z,4.55
2019-03-13T02:51:31.430Z,4.47
2019-03-13T02:53:57.304Z,4.50
2019-03-13T02:56:23.136Z,4.47
2019-03-13T02:58:48.988Z,4.59
2019-03-13T03:01:16.952Z,4.42
2019-03-13T03:03:45.056Z,4.36
2019-03-13T03:06:11.004Z,4.31
2019-03-13T03:08:36.871Z,4.27
2019-03-13T03:11:03.053Z,4.21
2019-03-13T03:13:28.918Z,4.20
2019-03-13T03:15:54.869Z,4.25
2019-03-13T03:18:20.833Z,4.22
2019-03-13T03:20:46.653Z,4.21
2019-03-13T03:23:12.647Z,4.20
2019-03-13T03:25:38.617Z,4.34
2019-03-13T03:28:04.643Z,4.35
2019-03-13T03:30:30.801Z,4.34
2019-03-13T03:32:56.988Z,4.27
2019-03-13T03:35:23.005Z,4.36
2019-03-13T03:37:49.025Z,4.45
2019-03-13T03:40:22.321Z,4.45
2019-03-13T03:42:46.461Z,4.42
2019-03-13T03:45:12.608Z,4.38
2019-03-13T03:47:38.670Z,4.38
2019-03-13T03:50:10.413Z,4.39
2019-03-13T03:52:36.398Z,4.25
2019-03-13T03:55:04.862Z,4.25
2019-03-13T03:57:30.926Z,4.21
2019-03-13T03:59:56.926Z,4.21
2019-03-13T04:02:22.774Z,4.20
2019-03-13T04:04:48.827Z,4.20
2019-03-13T04:07:14.747Z,4.07
2019-03-13T04:09:40.731Z,4.07
2019-03-13T04:12:06.702Z,4.07
2019-03-13T04:14:32.657Z,4.24
2019-03-13T04:16:58.697Z,4.19
2019-03-13T04:19:24.553Z,4.22
2019-03-13T04:21:50.513Z,4.15
2019-03-13T04:24:16.421Z,4.35
2019-03-13T04:26:44.204Z,4.33
2019-03-13T04:29:10.167Z,4.34
2019-03-13T04:31:36.287Z,4.30
2019-03-13T04:34:02.258Z,4.30
2019-03-13T04:36:28.085Z,4.22
2019-03-13T04:38:54.195Z,4.17
2019-03-13T04:41:22.050Z,4.10
2019-03-13T04:43:47.990Z,4.10
2019-03-13T04:46:14.046Z,4.00
2019-03-13T04:48:39.878Z,3.96
2019-03-13T04:51:06.128Z,4.06
2019-03-13T04:53:31.988Z,4.14
2019-03-13T04:55:57.830Z,4.07
2019-03-13T04:58:23.786Z,4.28
2019-03-13T05:00:49.837Z,4.24
2019-03-13T05:03:15.819Z,4.31
2019-03-13T05:05:43.581Z,4.31
2019-03-13T05:08:18.551Z,4.31
2019-03-13T05:10:44.417Z,4.30
2019-03-13T05:13:10.577Z,4.32
2019-03-13T05:15:36.576Z,4.26
2019-03-13T05:18:02.620Z,4.26
2019-03-13T05:20:28.723Z,4.06
2019-03-13T05:22:54.969Z,3.93
2019-03-13T05:25:20.809Z,3.72
2019-03-13T05:27:46.767Z,3.72
2019-03-13T05:30:12.925Z,3.70
2019-03-13T05:32:38.893Z,3.72
2019-03-13T05:35:05.526Z,3.83
2019-03-13T05:37:33.865Z,3.81
2019-03-13T05:39:59.725Z,3.75
2019-03-13T05:42:25.683Z,3.77
2019-03-13T05:44:51.519Z,3.77
2019-03-13T05:47:17.585Z,3.82
2019-03-13T05:49:43.450Z,3.89
2019-03-13T05:52:09.304Z,3.91
2019-03-13T05:54:35.373Z,3.96
2019-03-13T05:57:01.419Z,4.05
2019-03-13T05:59:27.290Z,4.02
2019-03-13T06:01:53.132Z,4.02
2019-03-13T06:04:19.067Z,4.00
2019-03-13T06:06:45.096Z,3.88
2019-03-13T06:09:10.963Z,3.85
2019-03-13T06:11:36.896Z,3.83
2019-03-13T06:14:03.066Z,3.77
2019-03-13T06:16:29.014Z,3.86
2019-03-13T06:18:54.977Z,3.88
2019-03-13T06:21:20.954Z,3.89
2019-03-13T06:23:48.101Z,3.91
2019-03-13T06:26:14.174Z,4.01
2019-03-13T06:28:40.237Z,4.08
2019-03-13T06:31:06.152Z,4.18
2019-03-13T06:33:33.130Z,4.02
2019-03-13T06:35:59.137Z,4.06
2019-03-13T06:38:25.315Z,4.19
2019-03-13T06:40:51.465Z,4.43
2019-03-13T06:43:17.308Z,4.43
2019-03-13T06:45:43.259Z,4.51
2019-03-13T06:48:09.127Z,4.57
2019-03-13T06:50:35.275Z,4.71
2019-03-13T06:53:01.252Z,4.81
2019-03-13T06:55:27.194Z,4.88
2019-03-13T06:57:53.304Z,5.04
2019-03-13T07:00:37.053Z,5.16
2019-03-13T07:03:11.189Z,5.14
2019-03-13T07:05:55.526Z,5.26
2019-03-13T07:08:40.073Z,5.17
2019-03-13T07:11:10.606Z,5.22
2019-03-13T07:13:50.592Z,5.49
2019-03-13T07:16:27.204Z,5.63
2019-03-13T07:18:57.792Z,5.90
2019-03-13T07:21:25.549Z,5.77
2019-03-13T07:24:11.489Z,5.91
2019-03-13T07:26:39.436Z,6.09
2019-03-13T07:29:12.472Z,6.28
2019-03-13T07:31:42.716Z,6.43
2019-03-13T07:34:10.525Z,6.54
2019-03-13T07:36:54.944Z,6.57
2019-03-13T07:39:39.283Z,6.73
2019-03-13T07:42:07.171Z,6.90
2019-03-13T07:44:41.033Z,7.04
2019-03-13T07:47:14.721Z,7.17
2019-03-13T07:49:45.464Z,7.28
2019-03-13T07:52:13.418Z,7.36
2019-03-13T07:54:47.036Z,7.62
2019-03-13T07:57:20.809Z,7.69
2019-03-13T07:59:54.367Z,8.06
2019-03-13T08:02:22.114Z,8.20
2019-03-13T08:05:06.391Z,8.56
2019-03-13T08:07:52.298Z,8.91
2019-03-13T08:10:26.171Z,9.00
2019-03-13T08:12:56.635Z,8.88
2019-03-13T08:15:36.243Z,9.01
2019-03-13T08:18:04.248Z,9.15
2019-03-13T08:20:37.951Z,9.27
2019-03-13T08:23:08.506Z,9.46
2019-03-13T08:25:36.330Z,9.65
2019-03-13T08:28:10.371Z,9.74
2019-03-13T08:30:50.102Z,9.96
2019-03-13T08:33:20.855Z,9.98
2019-03-13T08:35:51.444Z,10.10
2019-03-13T08:38:24.997Z,10.41
2019-03-13T08:40:52.851Z,10.80
2019-03-13T08:43:22.550Z,11.18
2019-03-13T08:45:59.471Z,11.23
2019-03-13T08:48:36.350Z,11.75
2019-03-13T08:51:07.062Z,11.84
2019-03-13T08:53:37.559Z,11.60
2019-03-13T08:56:05.796Z,11.35
2019-03-13T08:58:33.543Z,11.39
2019-03-13T09:01:02.249Z,11.25
2019-03-13T09:03:30.231Z,11.28
2019-03-13T09:05:58.204Z,11.68
2019-03-13T09:08:28.740Z,11.64
2019-03-13T09:10:59.451Z,12.00
2019-03-13T09:13:30.127Z,11.86
2019-03-13T09:16:10.111Z,11.94
2019-03-13T09:18:43.929Z,12.16
2019-03-13T09:21:14.714Z,11.94
2019-03-13T09:23:48.279Z,11.99
2019-03-13T09:26:16.029Z,12.27
2019-03-13T09:28:46.488Z,11.57
2019-03-13T09:31:17.307Z,11.00
2019-03-13T09:33:47.941Z,11.29
2019-03-13T09:36:21.715Z,11.17
2019-03-13T09:38:52.236Z,11.70
2019-03-13T09:41:23.192Z,11.93
2019-03-13T09:43:59.740Z,12.15
2019-03-13T09:46:35.625Z,12.39
2019-03-13T09:49:18.548Z,12.14
2019-03-13T09:51:49.428Z,12.04
2019-03-13T09:54:33.940Z,11.86
2019-03-13T09:57:18.435Z,12.21
2019-03-13T10:00:03.067Z,12.20
2019-03-13T10:02:36.656Z,12.17
2019-03-13T10:05:17.401Z,12.05
2019-03-13T10:07:45.201Z,11.74
2019-03-13T10:10:15.755Z,11.58
2019-03-13T10:12:49.576Z,11.23
2019-03-13T10:15:23.070Z,11.40
2019-03-13T10:17:50.974Z,11.15
2019-03-13T10:20:36.904Z,10.63
2019-03-13T10:23:05.223Z,10.64
2019-03-13T10:25:32.970Z,10.65
2019-03-13T10:28:03.696Z,10.95
2019-03-13T10:30:49.715Z,10.83
2019-03-13T10:33:35.553Z,10.77
2019-03-13T10:36:12.114Z,10.75
2019-03-13T10:38:45.882Z,10.58
2019-03-13T10:41:13.784Z,10.58
2019-03-13T10:43:47.404Z,10.54
2019-03-13T10:46:15.423Z,10.71
2019-03-13T10:48:43.367Z,10.97
2019-03-13T10:51:27.634Z,11.05
2019-03-13T10:54:12.454Z,10.82
2019-03-13T10:56:56.843Z,10.53
2019-03-13T10:59:41.537Z,10.26
2019-03-13T11:02:15.084Z,10.43
2019-03-13T11:04:45.833Z,10.66
2019-03-13T11:07:13.701Z,10.44
2019-03-13T11:09:47.230Z,10.56
2019-03-13T11:12:20.796Z,10.83
2019-03-13T11:14:54.314Z,10.38
2019-03-13T11:17:34.204Z,10.61
2019-03-13T11:20:04.660Z,10.43
2019-03-13T11:22:38.759Z,10.77
2019-03-13T11:25:18.380Z,10.40
2019-03-13T11:27:52.123Z,10.85
2019-03-13T11:30:20.839Z,10.34
2019-03-13T11:32:54.873Z,10.41
2019-03-13T11:35:28.700Z,10.32
2019-03-13T11:38:11.822Z,10.56
2019-03-13T11:40:39.771Z,10.66
2019-03-13T11:43:13.748Z,10.43
2019-03-13T11:45:53.649Z,10.55
2019-03-13T11:48:33.444Z,10.91
2019-03-13T11:51:16.293Z,10.69
2019-03-13T11:53:47.054Z,10.94
2019-03-13T11:56:17.771Z,11.26
2019-03-13T11:59:02.273Z,11.14
2019-03-13T12:01:44.842Z,11.17
2019-03-13T12:04:15.315Z,11.22
2019-03-13T12:06:59.892Z,11.33
2019-03-13T12:09:27.732Z,11.63
2019-03-13T12:11:55.624Z,11.84
2019-03-13T12:14:23.496Z,12.03
2019-03-13T12:16:54.011Z,11.96
2019-03-13T12:19:38.769Z,11.94
2019-03-13T12:22:06.507Z,12.04
2019-03-13T12:24:40.585Z,12.07
2019-03-13T12:27:08.328Z,12.63
2019-03-13T12:29:39.032Z,12.79
2019-03-13T12:32:18.805Z,12.10
2019-03-13T12:34:52.699Z,12.50
2019-03-13T12:37:20.637Z,14.57
2019-03-13T12:39:48.610Z,18.27
2019-03-13T12:42:19.296Z,18.32
2019-03-13T12:44:49.756Z,17.36
2019-03-13T12:47:29.689Z,17.36
2019-03-13T12:50:14.277Z,18.23
2019-03-13T12:53:00.746Z,14.74
2019-03-13T12:55:44.971Z,15.05
2019-03-13T12:58:21.659Z,15.80
2019-03-13T13:00:49.517Z,18.40
2019-03-13T13:03:23.433Z,18.72
2019-03-13T13:05:51.375Z,18.87
2019-03-13T13:08:28.030Z,18.87
2019-03-13T13:11:10.905Z,17.97
2019-03-13T13:13:44.487Z,19.40
2019-03-13T13:16:15.278Z,17.76
2019-03-13T13:18:53.436Z,19.56
2019-03-13T13:21:19.762Z,18.99
2019-03-13T13:23:45.819Z,18.20
2019-03-13T13:26:11.847Z,18.60
2019-03-13T13:28:40.878Z,20.33
2019-03-13T13:31:06.907Z,20.10
2019-03-13T13:33:33.018Z,21.50
2019-03-13T13:35:59.490Z,21.78
2019-03-13T13:38:25.562Z,21.19
2019-03-13T13:40:51.637Z,20.87
2019-03-13T13:43:17.527Z,22.36
2019-03-13T13:45:44.900Z,20.04
2019-03-13T13:48:10.962Z,21.86
2019-03-13T13:50:36.986Z,22.44
2019-03-13T13:53:02.826Z,23.61
2019-03-13T13:55:28.888Z,22.20
2019-03-13T13:57:54.944Z,19.63
2019-03-13T14:00:20.890Z,21.03
2019-03-13T14:02:46.868Z,21.19
2019-03-13T14:05:12.832Z,22.65
2019-03-13T14:07:38.902Z,21.66
2019-03-13T14:10:10.291Z,22.83
2019-03-13T14:12:36.134Z,22.11
2019-03-13T14:15:04.849Z,24.23
2019-03-13T14:17:32.243Z,22.73
2019-03-13T14:19:58.094Z,23.97
2019-03-13T14:22:24.044Z,20.44
2019-03-13T14:24:49.882Z,20.05
2019-03-13T14:27:15.814Z,21.99
2019-03-13T14:29:41.787Z,19.79
2019-03-13T14:32:07.729Z,23.75
2019-03-13T14:34:33.919Z,23.17
2019-03-13T14:37:01.011Z,24.35
2019-03-13T14:39:27.003Z,24.30
2019-03-13T14:41:53.058Z,22.42
2019-03-13T14:44:19.117Z,22.70
2019-03-13T14:46:45.026Z,21.76
2019-03-13T14:49:10.989Z,22.98
2019-03-13T14:51:36.843Z,23.71
2019-03-13T14:54:02.995Z,23.08
2019-03-13T14:56:28.928Z,23.48
2019-03-13T14:58:54.845Z,22.30
2019-03-13T15:01:20.907Z,22.77
2019-03-13T15:03:46.986Z,23.02
2019-03-13T15:06:14.002Z,21.55
2019-03-13T15:08:40.126Z,19.67
2019-03-13T15:11:06.196Z,23.09
2019-03-13T15:13:32.066Z,21.06
2019-03-13T15:15:58.071Z,20.69
2019-03-13T15:18:23.993Z,21.15
2019-03-13T15:20:49.879Z,18.21
2019-03-13T15:23:16.023Z,21.17
2019-03-13T15:25:42.168Z,17.43
2019-03-13T15:28:08.218Z,18.07
2019-03-13T15:30:34.263Z,17.54
2019-03-13T15:33:00.182Z,21.25
2019-03-13T15:35:26.131Z,20.07
2019-03-13T15:37:52.265Z,19.16
2019-03-13T15:40:18.376Z,17.63
2019-03-13T15:42:44.951Z,20.00
2019-03-13T15:45:26.514Z,17.88
2019-03-13T15:47:52.570Z,17.64
2019-03-13T15:50:18.648Z,17.17
2019-03-13T15:52:44.800Z,15.34
2019-03-13T15:55:15.446Z,14.88
2019-03-13T15:57:41.515Z,14.99
2019-03-13T16:00:19.912Z,14.30
2019-03-13T16:02:47.433Z,15.16
2019-03-13T16:05:13.501Z,14.40
2019-03-13T16:07:39.590Z,13.27
2019-03-13T16:10:09.171Z,12.81
2019-03-13T16:12:35.426Z,12.65
2019-03-13T16:15:01.511Z,12.99
2019-03-13T16:17:27.462Z,13.00
2019-03-13T16:19:53.481Z,12.84
2019-03-13T16:22:21.418Z,12.92
2019-03-13T16:24:47.384Z,12.70
2019-03-13T16:27:13.409Z,11.94
2019-03-13T16:29:39.304Z,12.52
2019-03-13T16:32:05.324Z,12.21
2019-03-13T16:34:31.270Z,12.12
2019-03-13T16:36:57.489Z,12.73
2019-03-13T16:39:23.333Z,13.82
2019-03-13T16:41:49.279Z,14.42
2019-03-13T16:44:15.486Z,14.74
2019-03-13T16:46:42.941Z,11.74
2019-03-13T16:49:09.138Z,10.66
2019-03-13T16:51:35.189Z,10.17
2019-03-13T16:54:01.144Z,9.66
2019-03-13T16:56:27.016Z,9.37
2019-03-13T16:58:53.088Z,9.48
2019-03-13T17:01:18.931Z,9.22
2019-03-13T17:03:45.053Z,9.56
2019-03-13T17:06:11.145Z,9.85
2019-03-13T17:08:37.149Z,10.22
2019-03-13T17:11:03.176Z,9.97
2019-03-13T17:13:29.164Z,9.65
2019-03-13T17:15:55.031Z,9.32
2019-03-13T17:18:20.990Z,9.62
2019-03-13T17:20:47.060Z,9.10
2019-03-13T17:23:13.020Z,8.80
2019-03-13T17:25:39.074Z,8.75
2019-03-13T17:28:05.195Z,8.72
2019-03-13T17:30:32.404Z,8.85
2019-03-13T17:32:58.882Z,9.14
2019-03-13T17:35:25.017Z,9.34
2019-03-13T17:37:51.483Z,9.20
2019-03-13T17:40:22.300Z,8.90
2019-03-13T17:42:48.246Z,8.63
2019-03-13T17:45:16.499Z,8.72
2019-03-13T17:47:42.623Z,8.63
2019-03-13T17:50:11.610Z,8.48
2019-03-13T17:52:37.499Z,8.57
2019-03-13T17:55:05.894Z,8.61
2019-03-13T17:57:31.920Z,8.69
2019-03-13T17:59:57.906Z,8.81
2019-03-13T18:02:24.117Z,8.53
2019-03-13T18:04:49.947Z,8.41
2019-03-13T18:07:15.881Z,8.70
2019-03-13T18:09:41.737Z,8.63
2019-03-13T18:12:07.600Z,8.56
2019-03-13T18:14:33.511Z,8.51
2019-03-13T18:16:59.472Z,8.58
2019-03-13T18:19:25.300Z,8.40
2019-03-13T18:21:51.225Z,8.27
2019-03-13T18:24:17.200Z,8.38
2019-03-13T18:26:43.037Z,8.49
2019-03-13T18:29:09.428Z,8.35
2019-03-13T18:31:35.527Z,8.35
2019-03-13T18:34:01.377Z,8.30
2019-03-13T18:36:27.400Z,8.24
2019-03-13T18:38:53.330Z,8.29
2019-03-13T18:41:23.147Z,8.12
2019-03-13T18:43:48.156Z,8.14
2019-03-13T18:46:14.070Z,7.94
2019-03-13T18:48:39.985Z,7.94
2019-03-13T18:51:06.056Z,8.00
2019-03-13T18:53:32.015Z,7.97
2019-03-13T18:55:58.087Z,7.90
2019-03-13T18:58:23.959Z,7.99
2019-03-13T19:00:49.884Z,7.92
2019-03-13T19:03:15.820Z,7.79
2019-03-13T19:05:41.858Z,7.72
2019-03-13T19:08:07.845Z,7.57
2019-03-13T19:10:34.074Z,7.70
2019-03-13T19:13:00.181Z,7.53
2019-03-13T19:15:27.923Z,7.31
2019-03-13T19:17:54.064Z,7.29
2019-03-13T19:20:26.629Z,7.46
2019-03-13T19:22:52.706Z,7.49
2019-03-13T19:25:18.932Z,7.59
2019-03-13T19:27:44.850Z,7.50
2019-03-13T19:30:31.059Z,7.33
2019-03-13T19:32:57.097Z,7.20
2019-03-13T19:35:23.217Z,7.11
2019-03-13T19:37:49.085Z,7.17
2019-03-13T19:40:17.864Z,7.09
2019-03-13T19:42:43.964Z,7.07
2019-03-13T19:45:13.618Z,6.92
2019-03-13T19:47:40.447Z,7.06
2019-03-13T19:50:07.230Z,7.00
2019-03-13T19:52:33.955Z,6.85
2019-03-13T19:54:59.857Z,6.83
2019-03-13T19:57:25.695Z,6.87
2019-03-13T19:59:51.533Z,6.84
2019-03-13T20:02:17.515Z,6.85
2019-03-13T20:04:47.460Z,6.76
2019-03-13T20:07:11.199Z,6.66
2019-03-13T20:09:37.176Z,6.78
2019-03-13T20:12:03.317Z,6.80
2019-03-13T20:14:29.278Z,6.68
2019-03-13T20:16:55.216Z,6.78
2019-03-13T20:19:21.047Z,6.51
2019-03-13T20:21:47.047Z,6.44
2019-03-13T20:24:13.025Z,6.36
2019-03-13T20:26:38.847Z,6.36
2019-03-13T20:29:04.937Z,6.26
2019-03-13T20:31:30.889Z,6.30
2019-03-13T20:33:57.071Z,6.42
2019-03-13T20:36:22.973Z,6.36
2019-03-13T20:38:48.917Z,6.34
2019-03-13T20:41:15.041Z,6.49
2019-03-13T20:43:41.236Z,6.29
2019-03-13T20:46:07.304Z,6.29
2019-03-13T20:48:33.324Z,6.14
2019-03-13T20:50:59.171Z,6.25
2019-03-13T20:53:25.227Z,6.31
2019-03-13T20:55:51.427Z,6.18
2019-03-13T20:58:17.682Z,6.01
2019-03-13T21:00:44.265Z,6.01
2019-03-13T21:03:10.656Z,6.04
2019-03-13T21:05:36.848Z,5.98
2019-03-13T21:08:03.230Z,5.95
2019-03-13T21:10:29.309Z,5.95
2019-03-13T21:12:55.408Z,5.83
2019-03-13T21:15:27.465Z,5.87
2019-03-13T21:17:53.472Z,5.83
2019-03-13T21:20:19.803Z,5.67
2019-03-13T21:22:45.676Z,5.73
2019-03-13T21:25:16.098Z,5.77
2019-03-13T21:27:42.368Z,5.74
2019-03-13T21:30:21.995Z,5.70
2019-03-13T21:32:47.834Z,5.63
2019-03-13T21:35:13.868Z,5.61
2019-03-13T21:37:39.897Z,5.68
2019-03-13T21:40:09.141Z,5.68
2019-03-13T21:42:34.990Z,5.71
2019-03-13T21:45:00.875Z,5.74
2019-03-13T21:47:26.743Z,5.74
2019-03-13T21:49:52.626Z,5.66
2019-03-13T21:52:18.446Z,5.52
2019-03-13T21:54:45.335Z,5.53
2019-03-13T21:57:11.410Z,5.54
2019-03-13T21:59:37.257Z,5.53
2019-03-13T22:02:03.209Z,5.50
2019-03-13T22:04:29.050Z,5.55
2019-03-13T22:06:55.003Z,5.52
2019-03-13T22:09:21.276Z,5.48
2019-03-13T22:11:47.313Z,5.42
2019-03-13T22:14:13.150Z,5.43
2019-03-13T22:16:39.019Z,5.46
2019-03-13T22:19:04.952Z,5.37
2019-03-13T22:21:30.807Z,5.43
2019-03-13T22:23:56.744Z,5.35
2019-03-13T22:26:22.664Z,5.30
2019-03-13T22:28:48.461Z,5.29
2019-03-13T22:31:14.391Z,5.27
2019-03-13T22:33:40.368Z,5.25
2019-03-13T22:36:06.436Z,5.22
2019-03-13T22:38:32.335Z,5.28
2019-03-13T22:40:58.199Z,5.08
2019-03-13T22:43:24.124Z,5.11
2019-03-13T22:45:49.948Z,5.15
2019-03-13T22:48:15.918Z,5.21
2019-03-13T22:50:41.878Z,5.15
2019-03-13T22:53:07.777Z,5.05
2019-03-13T22:55:33.644Z,5.10
2019-03-13T22:58:01.520Z,5.14
2019-03-13T23:00:50.691Z,5.14
2019-03-13T23:03:17.337Z,5.19
2019-03-13T23:05:43.281Z,5.08
2019-03-13T23:08:09.322Z,5.13
2019-03-13T23:10:35.399Z,4.99
2019-03-13T23:13:01.450Z,4.90
2019-03-13T23:15:27.504Z,4.82
2019-03-13T23:17:53.484Z,4.82
2019-03-13T23:20:19.458Z,4.61
2019-03-13T23:22:45.292Z,4.56
2019-03-13T23:25:11.361Z,4.52
2019-03-13T23:27:37.656Z,4.51
2019-03-13T23:30:06.390Z,4.57
2019-03-13T23:32:32.254Z,4.54
2019-03-13T23:34:58.202Z,4.65
2019-03-13T23:37:24.101Z,4.59
2019-03-13T23:39:49.942Z,4.74
2019-03-13T23:42:15.771Z,4.87
2019-03-13T23:44:41.621Z,4.81
2019-03-13T23:47:07.547Z,4.89
2019-03-13T23:49:33.351Z,4.76
2019-03-13T23:51:59.289Z,4.72
2019-03-13T23:54:25.139Z,4.63
2019-03-13T23:56:50.953Z,4.72
2019-03-13T23:59:16.968Z,4.57
